Westgard — PDBQ — position and weather

sailwx.info

Track history (hours):
 
Tides and Currents Weather Stations Pressure Air Temp Water Temp Dewpoint Dewpoint Depression Visibility Wind Speed Wind Dir Waves Ship Positions

Westgard

Last reported at 2016-Aug-29 03:33 UTC. Time now 2016-Aug-29 03:45 UTC.
Position N 53°45' E 008°12'.

Length 89 m; draft 5.4 m.

Type: Ship. MMSI: 246457000.

Date/timePositionNaut miles runAvg speedWind from/ knotsBaromVisibWave heightAir tempDewpointWater temp
2016-Aug-29 03:33N 53°45' E 008°12'1110.7
2016-Aug-29 02:33N 53°51' E 007°58'6 5.8
2016-Aug-29 01:33N 53°56' E 008°02'1010.0
2016-Aug-29 00:33N 53°59' E 008°19'1212.0
2016-Aug-28 23:33N 53°56' E 008°39'1110.7
2016-Aug-28 22:33N 53°51' E 008°54'9 9.2
2016-Aug-28 21:33N 53°54' E 009°09'0 0.5
2016-Aug-28 20:33N 53°54' E 009°09'8 7.9
2016-Aug-28 19:33N 54°00' E 009°18'2 2.2
2016-Aug-28 18:33N 54°02' E 009°18'29 6.7
2016-Aug-28 14:18N 54°21' E 009°56'5 6.4
2016-Aug-28 13:33N 54°22' E 010°04'4 2.0
2016-Aug-28 11:34N 54°22' E 010°10'10 9.7
2016-Aug-28 10:33N 54°31' E 010°19'1010.5
2016-Aug-28 09:33N 54°35' E 010°36'1110.6
2016-Aug-28 08:33N 54°36' E 010°54'1211.7
2016-Aug-28 07:33N 54°36' E 011°14'1212.0
2016-Aug-28 06:33N 54°31' E 011°34'1110.7
2016-Aug-28 05:33N 54°29' E 011°51'1010.0
2016-Aug-28 04:33N 54°32' E 012°08'1010.4
2016-Aug-28 03:33N 54°39' E 012°21'1110.6
2016-Aug-28 02:33N 54°45' E 012°36'1110.6
2016-Aug-28 01:33N 54°50' E 012°52'1110.8
2016-Aug-28 00:33N 54°54' E 013°10'1110.9
2016-Aug-27 23:34N 54°58' E 013°27'1111.0
2016-Aug-27 22:33N 55°03' E 013°45'1110.9
2016-Aug-27 21:34N 55°07' E 014°02'1010.3
2016-Aug-27 20:34N 55°13' E 014°16'1110.6
2016-Aug-27 19:33N 55°21' E 014°29'1110.6
2016-Aug-27 18:34N 55°28' E 014°43'1010.2
2016-Aug-27 17:33N 55°33' E 014°58'10 9.9
2016-Aug-27 16:33N 55°38' E 015°13'10 9.8
2016-Aug-27 15:33N 55°43' E 015°28'10 9.8
2016-Aug-27 14:32N 55°48' E 015°43'9 9.6
2016-Aug-27 13:33N 55°53' E 015°58'335 9.3
2016-Aug-26 01:26N 59°32' E 023°52'18 9.8
2016-Aug-25 23:33N 59°40' E 024°25'10 9.9
2016-Aug-25 22:33N 59°44' E 024°43'58 9.5
2016-Aug-25 16:25N 60°13' E 026°23'8 9.1
2016-Aug-25 15:34N 60°19' E 026°34'1010.2
2016-Aug-25 14:34N 60°24' E 026°52'6 5.8
2016-Aug-25 13:34N 60°29' E 026°57'0 0.0
2016-Aug-25 12:33N 60°29' E 026°57'0 0.0
2016-Aug-25 11:33N 60°29' E 026°57'0 0.0
2016-Aug-25 10:33N 60°29' E 026°57'0 0.0
2016-Aug-25 09:33N 60°29' E 026°57'0 0.0
2016-Aug-25 08:33N 60°29' E 026°57'0 0.0
2016-Aug-25 07:33N 60°29' E 026°57'0 0.0
2016-Aug-25 06:33N 60°29' E 026°57'0 0.0
2016-Aug-25 04:33N 60°29' E 026°57'0 0.0
2016-Aug-25 03:33N 60°29' E 026°57'0 0.0
2016-Aug-25 02:33N 60°29' E 026°57'0 0.0
2016-Aug-25 01:33N 60°29' E 026°57'0 0.0
2016-Aug-25 00:33N 60°29' E 026°57'0 0.0
2016-Aug-24 23:33N 60°29' E 026°57'0 0.0
2016-Aug-24 22:33N 60°29' E 026°57'0 0.0
2016-Aug-24 21:33N 60°29' E 026°57'0 0.0
2016-Aug-24 20:33N 60°29' E 026°57'0 0.0
2016-Aug-24 19:33N 60°29' E 026°57'0 0.0
2016-Aug-24 18:33N 60°29' E 026°57'0 0.0
2016-Aug-24 17:33N 60°29' E 026°57'0 0.0
2016-Aug-24 16:33N 60°29' E 026°57'0 0.0
2016-Aug-24 15:32N 60°29' E 026°57'0 0.0
2016-Aug-24 14:32N 60°29' E 026°57'0 0.0
2016-Aug-24 13:29N 60°29' E 026°57'0 0.3
2016-Aug-24 12:33N 60°29' E 026°57'7 7.2
2016-Aug-24 11:33N 60°32' E 027°11'0 0.3
2016-Aug-24 10:33N 60°32' E 027°11'0 0.0
2016-Aug-24 09:33N 60°32' E 027°11'0 0.0
2016-Aug-24 08:33N 60°32' E 027°11'0 0.0
2016-Aug-24 07:30N 60°32' E 027°11'0 0.0
2016-Aug-24 06:30N 60°32' E 027°11'0 0.0
2016-Aug-24 04:33N 60°32' E 027°11'0 0.0
2016-Aug-24 03:33N 60°32' E 027°11'0 0.0
2016-Aug-24 02:33N 60°32' E 027°11'0 0.0
2016-Aug-24 01:30N 60°32' E 027°11'0 0.0
2016-Aug-24 00:33N 60°32' E 027°11'0 0.0
2016-Aug-23 23:33N 60°32' E 027°11'0 0.0
2016-Aug-23 22:33N 60°32' E 027°11'0 0.0
2016-Aug-23 21:33N 60°32' E 027°11'0 0.0
2016-Aug-23 20:33N 60°32' E 027°11'0 0.0
2016-Aug-23 19:33N 60°32' E 027°11'0 0.0
2016-Aug-23 18:33N 60°32' E 027°11'0 0.0
2016-Aug-23 17:33N 60°32' E 027°11'0 0.0
2016-Aug-23 16:33N 60°32' E 027°11'0 0.0
2016-Aug-23 15:17N 60°32' E 027°11'0 0.0
2016-Aug-23 14:29N 60°32' E 027°11'0 0.0
2016-Aug-23 12:32N 60°32' E 027°11'0 0.0
2016-Aug-23 11:32N 60°32' E 027°11'0 0.0
2016-Aug-23 10:32N 60°32' E 027°11'0 0.0
2016-Aug-23 09:32N 60°32' E 027°11'0 0.0
2016-Aug-23 08:32N 60°32' E 027°11'0 0.0
2016-Aug-23 05:32N 60°32' E 027°11'0 0.0
2016-Aug-23 04:32N 60°32' E 027°11'0 0.0
2016-Aug-23 03:26N 60°32' E 027°11'0 0.0
2016-Aug-23 02:20N 60°32' E 027°11'0 0.0
2016-Aug-22 20:29N 60°32' E 027°11'0 0.0
2016-Aug-22 14:14N 60°32' E 027°11'0 0.0
2016-Aug-22 11:29N 60°32' E 027°11'0 0.0
2016-Aug-22 09:26N 60°32' E 027°11'0 0.0
2016-Aug-22 04:31N 60°32' E 027°11'0 0.0
2016-Aug-22 03:28N 60°32' E 027°11'0 0.0
2016-Aug-22 02:31N 60°32' E 027°11'0 0.0
2016-Aug-22 01:31N 60°32' E 027°11'0 0.0
2016-Aug-22 00:28N 60°32' E 027°11'0 0.0
2016-Aug-21 23:28N 60°32' E 027°11'0 0.0
2016-Aug-21 22:31N 60°32' E 027°11'0 0.0
2016-Aug-21 21:25N 60°32' E 027°11'0 0.0
2016-Aug-21 20:31N 60°32' E 027°11'0 0.0
2016-Aug-21 19:31N 60°32' E 027°11'0 0.0
2016-Aug-21 18:28N 60°32' E 027°11'0 0.0
2016-Aug-21 17:31N 60°32' E 027°11'0 0.0
2016-Aug-21 16:31N 60°32' E 027°11'0 0.0
2016-Aug-21 15:31N 60°32' E 027°11'0 0.0
2016-Aug-21 14:07N 60°32' E 027°11'0 0.0
2016-Aug-21 13:28N 60°32' E 027°11'0 0.0
2016-Aug-21 06:07N 60°32' E 027°11'0 0.0
2016-Aug-21 02:19N 60°32' E 027°11'0 0.0
2016-Aug-21 01:28N 60°32' E 027°11'0 0.0
2016-Aug-21 00:25N 60°32' E 027°11'0 0.0
2016-Aug-20 23:34N 60°32' E 027°11'0 0.0
2016-Aug-20 22:30N 60°32' E 027°11'0 0.0
2016-Aug-20 21:30N 60°32' E 027°11'0 0.0
2016-Aug-20 13:33N 60°32' E 027°11'0 0.0
2016-Aug-20 12:33N 60°32' E 027°11'0 0.0
2016-Aug-20 11:30N 60°32' E 027°11'0 0.0
2016-Aug-20 10:33N 60°32' E 027°11'0 0.0
2016-Aug-20 09:33N 60°32' E 027°11'0 0.0
2016-Aug-20 08:33N 60°32' E 027°11'0 0.0
2016-Aug-20 07:30N 60°32' E 027°11'0 0.0
2016-Aug-20 06:30N 60°32' E 027°11'0 0.0
2016-Aug-20 04:27N 60°32' E 027°11'0 0.0
2016-Aug-20 03:30N 60°32' E 027°11'0 0.0
2016-Aug-20 02:24N 60°32' E 027°11'0 0.0
2016-Aug-20 01:30N 60°32' E 027°11'0 0.0
2016-Aug-20 00:21N 60°32' E 027°11'0 0.0
2016-Aug-19 23:27N 60°32' E 027°11'0 0.0
2016-Aug-19 22:27N 60°32' E 027°11'0 0.0
2016-Aug-19 21:33N 60°32' E 027°11'0 0.0
2016-Aug-19 20:30N 60°32' E 027°11'0 0.0
2016-Aug-19 15:33N 60°32' E 027°11'  
Track history (hours):
 
Tides and Currents Weather Stations Pressure Air Temp Water Temp Dewpoint Dewpoint Depression Visibility Wind Speed Wind Dir Waves Ship Positions

Westgard

Last reported at 2016-Aug-29 03:33 UTC. Time now 2016-Aug-29 03:45 UTC.
Position N 53°45' E 008°12'.

Length 89 m; draft 5.4 m.

Type: Ship. MMSI: 246457000.

Date/timePositionNaut miles runAvg speedWind from/ knotsBaromVisibWave heightAir tempDewpointWater temp
2016-Aug-29 03:33N 53°45' E 008°12'1110.7
2016-Aug-29 02:33N 53°51' E 007°58'6 5.8
2016-Aug-29 01:33N 53°56' E 008°02'1010.0
2016-Aug-29 00:33N 53°59' E 008°19'1212.0
2016-Aug-28 23:33N 53°56' E 008°39'1110.7
2016-Aug-28 22:33N 53°51' E 008°54'9 9.2
2016-Aug-28 21:33N 53°54' E 009°09'0 0.5
2016-Aug-28 20:33N 53°54' E 009°09'8 7.9
2016-Aug-28 19:33N 54°00' E 009°18'2 2.2
2016-Aug-28 18:33N 54°02' E 009°18'29 6.7
2016-Aug-28 14:18N 54°21' E 009°56'5 6.4
2016-Aug-28 13:33N 54°22' E 010°04'4 2.0
2016-Aug-28 11:34N 54°22' E 010°10'10 9.7
2016-Aug-28 10:33N 54°31' E 010°19'1010.5
2016-Aug-28 09:33N 54°35' E 010°36'1110.6
2016-Aug-28 08:33N 54°36' E 010°54'1211.7
2016-Aug-28 07:33N 54°36' E 011°14'1212.0
2016-Aug-28 06:33N 54°31' E 011°34'1110.7
2016-Aug-28 05:33N 54°29' E 011°51'1010.0
2016-Aug-28 04:33N 54°32' E 012°08'1010.4
2016-Aug-28 03:33N 54°39' E 012°21'1110.6
2016-Aug-28 02:33N 54°45' E 012°36'1110.6
2016-Aug-28 01:33N 54°50' E 012°52'1110.8
2016-Aug-28 00:33N 54°54' E 013°10'1110.9
2016-Aug-27 23:34N 54°58' E 013°27'1111.0
2016-Aug-27 22:33N 55°03' E 013°45'1110.9
2016-Aug-27 21:34N 55°07' E 014°02'1010.3
2016-Aug-27 20:34N 55°13' E 014°16'1110.6
2016-Aug-27 19:33N 55°21' E 014°29'1110.6
2016-Aug-27 18:34N 55°28' E 014°43'1010.2
2016-Aug-27 17:33N 55°33' E 014°58'10 9.9
2016-Aug-27 16:33N 55°38' E 015°13'10 9.8
2016-Aug-27 15:33N 55°43' E 015°28'10 9.8
2016-Aug-27 14:32N 55°48' E 015°43'9 9.6
2016-Aug-27 13:33N 55°53' E 015°58'335 9.3
2016-Aug-26 01:26N 59°32' E 023°52'18 9.8
2016-Aug-25 23:33N 59°40' E 024°25'10 9.9
2016-Aug-25 22:33N 59°44' E 024°43'58 9.5
2016-Aug-25 16:25N 60°13' E 026°23'8 9.1
2016-Aug-25 15:34N 60°19' E 026°34'1010.2
2016-Aug-25 14:34N 60°24' E 026°52'6 5.8
2016-Aug-25 13:34N 60°29' E 026°57'0 0.0
2016-Aug-25 12:33N 60°29' E 026°57'0 0.0
2016-Aug-25 11:33N 60°29' E 026°57'0 0.0
2016-Aug-25 10:33N 60°29' E 026°57'0 0.0
2016-Aug-25 09:33N 60°29' E 026°57'0 0.0
2016-Aug-25 08:33N 60°29' E 026°57'0 0.0
2016-Aug-25 07:33N 60°29' E 026°57'0 0.0
2016-Aug-25 06:33N 60°29' E 026°57'0 0.0
2016-Aug-25 04:33N 60°29' E 026°57'0 0.0
2016-Aug-25 03:33N 60°29' E 026°57'0 0.0
2016-Aug-25 02:33N 60°29' E 026°57'0 0.0
2016-Aug-25 01:33N 60°29' E 026°57'0 0.0
2016-Aug-25 00:33N 60°29' E 026°57'0 0.0
2016-Aug-24 23:33N 60°29' E 026°57'0 0.0
2016-Aug-24 22:33N 60°29' E 026°57'0 0.0
2016-Aug-24 21:33N 60°29' E 026°57'0 0.0
2016-Aug-24 20:33N 60°29' E 026°57'0 0.0
2016-Aug-24 19:33N 60°29' E 026°57'0 0.0
2016-Aug-24 18:33N 60°29' E 026°57'0 0.0
2016-Aug-24 17:33N 60°29' E 026°57'0 0.0
2016-Aug-24 16:33N 60°29' E 026°57'0 0.0
2016-Aug-24 15:32N 60°29' E 026°57'0 0.0
2016-Aug-24 14:32N 60°29' E 026°57'0 0.0
2016-Aug-24 13:29N 60°29' E 026°57'0 0.3
2016-Aug-24 12:33N 60°29' E 026°57'7 7.2
2016-Aug-24 11:33N 60°32' E 027°11'0 0.3
2016-Aug-24 10:33N 60°32' E 027°11'0 0.0
2016-Aug-24 09:33N 60°32' E 027°11'0 0.0
2016-Aug-24 08:33N 60°32' E 027°11'0 0.0
2016-Aug-24 07:30N 60°32' E 027°11'0 0.0
2016-Aug-24 06:30N 60°32' E 027°11'0 0.0
2016-Aug-24 04:33N 60°32' E 027°11'0 0.0
2016-Aug-24 03:33N 60°32' E 027°11'0 0.0
2016-Aug-24 02:33N 60°32' E 027°11'0 0.0
2016-Aug-24 01:30N 60°32' E 027°11'0 0.0
2016-Aug-24 00:33N 60°32' E 027°11'0 0.0
2016-Aug-23 23:33N 60°32' E 027°11'0 0.0
2016-Aug-23 22:33N 60°32' E 027°11'0 0.0
2016-Aug-23 21:33N 60°32' E 027°11'0 0.0
2016-Aug-23 20:33N 60°32' E 027°11'0 0.0
2016-Aug-23 19:33N 60°32' E 027°11'0 0.0
2016-Aug-23 18:33N 60°32' E 027°11'0 0.0
2016-Aug-23 17:33N 60°32' E 027°11'0 0.0
2016-Aug-23 16:33N 60°32' E 027°11'0 0.0
2016-Aug-23 15:17N 60°32' E 027°11'0 0.0
2016-Aug-23 14:29N 60°32' E 027°11'0 0.0
2016-Aug-23 12:32N 60°32' E 027°11'0 0.0
2016-Aug-23 11:32N 60°32' E 027°11'0 0.0
2016-Aug-23 10:32N 60°32' E 027°11'0 0.0
2016-Aug-23 09:32N 60°32' E 027°11'0 0.0
2016-Aug-23 08:32N 60°32' E 027°11'0 0.0
2016-Aug-23 05:32N 60°32' E 027°11'0 0.0
2016-Aug-23 04:32N 60°32' E 027°11'0 0.0
2016-Aug-23 03:26N 60°32' E 027°11'0 0.0
2016-Aug-23 02:20N 60°32' E 027°11'0 0.0
2016-Aug-22 20:29N 60°32' E 027°11'0 0.0
2016-Aug-22 14:14N 60°32' E 027°11'0 0.0
2016-Aug-22 11:29N 60°32' E 027°11'0 0.0
2016-Aug-22 09:26N 60°32' E 027°11'0 0.0
2016-Aug-22 04:31N 60°32' E 027°11'0 0.0
2016-Aug-22 03:28N 60°32' E 027°11'0 0.0
2016-Aug-22 02:31N 60°32' E 027°11'0 0.0
2016-Aug-22 01:31N 60°32' E 027°11'0 0.0
2016-Aug-22 00:28N 60°32' E 027°11'0 0.0
2016-Aug-21 23:28N 60°32' E 027°11'0 0.0
2016-Aug-21 22:31N 60°32' E 027°11'0 0.0
2016-Aug-21 21:25N 60°32' E 027°11'0 0.0
2016-Aug-21 20:31N 60°32' E 027°11'0 0.0
2016-Aug-21 19:31N 60°32' E 027°11'0 0.0
2016-Aug-21 18:28N 60°32' E 027°11'0 0.0
2016-Aug-21 17:31N 60°32' E 027°11'0 0.0
2016-Aug-21 16:31N 60°32' E 027°11'0 0.0
2016-Aug-21 15:31N 60°32' E 027°11'0 0.0
2016-Aug-21 14:07N 60°32' E 027°11'0 0.0
2016-Aug-21 13:28N 60°32' E 027°11'0 0.0
2016-Aug-21 06:07N 60°32' E 027°11'0 0.0
2016-Aug-21 02:19N 60°32' E 027°11'0 0.0
2016-Aug-21 01:28N 60°32' E 027°11'0 0.0
2016-Aug-21 00:25N 60°32' E 027°11'0 0.0
2016-Aug-20 23:34N 60°32' E 027°11'0 0.0
2016-Aug-20 22:30N 60°32' E 027°11'0 0.0
2016-Aug-20 21:30N 60°32' E 027°11'0 0.0
2016-Aug-20 13:33N 60°32' E 027°11'0 0.0
2016-Aug-20 12:33N 60°32' E 027°11'0 0.0
2016-Aug-20 11:30N 60°32' E 027°11'0 0.0
2016-Aug-20 10:33N 60°32' E 027°11'0 0.0
2016-Aug-20 09:33N 60°32' E 027°11'0 0.0
2016-Aug-20 08:33N 60°32' E 027°11'0 0.0
2016-Aug-20 07:30N 60°32' E 027°11'0 0.0
2016-Aug-20 06:30N 60°32' E 027°11'0 0.0
2016-Aug-20 04:27N 60°32' E 027°11'0 0.0
2016-Aug-20 03:30N 60°32' E 027°11'0 0.0
2016-Aug-20 02:24N 60°32' E 027°11'0 0.0
2016-Aug-20 01:30N 60°32' E 027°11'0 0.0
2016-Aug-20 00:21N 60°32' E 027°11'0 0.0
2016-Aug-19 23:27N 60°32' E 027°11'0 0.0
2016-Aug-19 22:27N 60°32' E 027°11'0 0.0
2016-Aug-19 21:33N 60°32' E 027°11'0 0.0
2016-Aug-19 20:30N 60°32' E 027°11'0 0.0
2016-Aug-19 15:33N 60°32' E 027°11'  

Dump ship's entire track history